Time;durP1;ratioP1;P1;durP2;ratioP2;P2;SDS_P1;SDS_P2;PMS_P1;PMS_P2;Temp;Humidity;BMP_temperature;BMP_pressure;BME280_temperature;BME280_humidity;BME280_pressure;Samples;Min_cycle;Max_cycle;Signal;HPM_P1;HPM_P2
2023/07/09 00:01:17;;;;;;;14.77;11.30;;;;;;;21.74;80.18;101730.34;6159350;23;20014;-77
2023/07/09 00:03:48;;;;;;;14.73;11.23;;;;;;;21.71;80.78;101728.59;6159286;23;20049;-77
2023/07/09 00:06:15;;;;;;;13.60;11.52;;;;;;;21.66;81.20;101723.94;6159347;23;20056;-77
2023/07/09 00:08:44;;;;;;;14.18;11.85;;;;;;;21.65;81.42;101727.88;6158768;23;20014;-77
2023/07/09 00:11:11;;;;;;;13.60;10.90;;;;;;;21.61;81.40;101728.09;6159356;23;20037;-77
2023/07/09 00:13:37;;;;;;;17.67;10.45;;;;;;;21.60;81.46;101729.34;6157947;23;20029;-77
2023/07/09 00:16:16;;;;;;;11.65;10.40;;;;;;;21.59;81.43;101729.88;6159625;23;20014;-77
2023/07/09 00:18:43;;;;;;;12.65;10.98;;;;;;;21.55;82.29;101734.78;6132789;23;20325;-77
2023/07/09 00:21:10;;;;;;;12.05;10.68;;;;;;;21.51;82.85;101740.44;6159604;23;20018;-77
2023/07/09 00:23:41;;;;;;;13.73;10.88;;;;;;;21.48;82.30;101740.69;6158676;23;20024;-78
2023/07/09 00:26:13;;;;;;;12.32;11.05;;;;;;;21.42;82.67;101750.78;6131980;23;20108;-77
2023/07/09 00:28:41;;;;;;;16.58;11.50;;;;;;;21.34;82.90;101753.22;6108304;23;20022;-77
2023/07/09 00:31:13;;;;;;;12.20;10.98;;;;;;;21.32;83.00;101746.81;6133005;23;20056;-77
2023/07/09 00:33:40;;;;;;;12.32;11.18;;;;;;;21.27;83.21;101745.56;6132426;23;20049;-77
2023/07/09 00:36:20;;;;;;;12.73;11.38;;;;;;;21.26;82.35;101752.22;6132929;23;20050;-77
2023/07/09 00:38:47;;;;;;;12.93;11.40;;;;;;;21.24;82.03;101749.25;6132651;23;20388;-78
2023/07/09 00:41:18;;;;;;;14.27;11.15;;;;;;;21.19;83.43;101760.81;6107989;23;20169;-77
2023/07/09 00:43:47;;;;;;;12.07;10.63;;;;;;;21.14;82.40;101748.72;6133233;23;20050;-77
2023/07/09 00:46:14;;;;;;;21.33;11.90;;;;;;;21.13;83.34;101754.63;6133536;23;20022;-77
2023/07/09 00:48:41;;;;;;;12.52;11.25;;;;;;;21.11;83.33;101757.09;6159323;23;20401;-77
2023/07/09 00:51:15;;;;;;;12.18;10.98;;;;;;;21.09;83.34;101756.84;6133385;23;20022;-77
2023/07/09 00:53:45;;;;;;;12.75;11.43;;;;;;;21.04;84.12;101765.69;6132723;23;20101;-77
2023/07/09 00:56:26;;;;;;;13.68;10.82;;;;;;;21.00;83.89;101765.91;6159242;23;20042;-77
2023/07/09 00:58:55;;;;;;;18.13;11.48;;;;;;;20.94;83.88;101771.31;6108741;23;20114;-76
2023/07/09 01:01:21;;;;;;;12.15;10.85;;;;;;;20.92;83.67;101768.34;6132897;23;20106;-76
2023/07/09 01:03:52;;;;;;;15.98;10.80;;;;;;;20.92;83.59;101764.91;6159820;23;20029;-76
2023/07/09 01:06:30;;;;;;;13.55;10.98;;;;;;;20.90;83.41;101768.09;6159274;23;20408;-76
2023/07/09 01:08:56;;;;;;;13.35;11.75;;;;;;;20.88;84.52;101767.09;6159365;23;20101;-76
2023/07/09 01:11:23;;;;;;;13.00;11.70;;;;;;;20.86;84.74;101764.88;6158516;23;20069;-77
2023/07/09 01:13:52;;;;;;;12.02;10.77;;;;;;;20.85;83.69;101760.69;6132524;23;20025;-77
2023/07/09 01:16:23;;;;;;;12.27;10.82;;;;;;;20.81;84.87;101757.47;6132518;23;20101;-76
2023/07/09 01:18:50;;;;;;;;;;;;;;;20.83;82.58;101760.44;6133776;23;20017;-77
2023/07/09 01:21:17;;;;;;;13.23;11.15;;;;;;;20.76;84.89;101755.50;6159549;23;19921;-77
2023/07/09 01:23:46;;;;;;;13.52;11.43;;;;;;;20.74;84.92;101760.66;6159179;23;20420;-78
2023/07/09 01:26:20;;;;;;;16.33;10.95;;;;;;;20.68;85.71;101759.91;6177763;23;20024;-77
2023/07/09 01:28:48;;;;;;;12.73;11.50;;;;;;;20.60;86.34;101756.91;6189154;23;20034;-77
2023/07/09 01:31:16;;;;;;;19.88;11.10;;;;;;;20.59;85.46;101760.09;6162718;23;20101;-76
2023/07/09 01:33:44;;;;;;;13.35;11.57;;;;;;;20.56;85.43;101759.09;6188863;23;20021;-77
2023/07/09 01:36:24;;;;;;;14.50;10.88;;;;;;;20.56;85.35;101763.75;6162263;23;20356;-76
2023/07/09 01:38:53;;;;;;;17.05;11.15;;;;;;;20.48;86.35;101760.03;6189377;23;20916;-76
2023/07/09 01:41:20;;;;;;;16.08;11.75;;;;;;;20.41;86.52;101758.50;6188752;23;20430;-76
2023/07/09 01:43:46;;;;;;;14.73;11.35;;;;;;;20.40;85.90;101754.31;6188839;23;20111;-76
2023/07/09 01:46:14;;;;;;;12.48;11.18;;;;;;;20.37;86.55;101759.97;6162394;23;20025;-76
2023/07/09 01:48:41;;;;;;;13.65;11.85;;;;;;;20.35;86.48;101765.09;6161170;23;20486;-76
2023/07/09 01:51:13;;;;;;;16.50;11.45;;;;;;;20.28;87.29;101763.59;6162317;23;20018;-76
2023/07/09 01:53:40;;;;;;;17.60;11.85;;;;;;;20.26;86.79;101772.19;6188199;23;20049;-76
2023/07/09 01:56:07;;;;;;;15.02;12.32;;;;;;;20.23;87.21;101769.69;6189379;23;20017;-77
2023/07/09 01:58:34;;;;;;;13.55;11.80;;;;;;;20.20;87.13;101771.41;6161729;23;20486;-76
2023/07/09 02:01:01;;;;;;;13.90;11.63;;;;;;;20.20;86.74;101773.38;6189061;23;20017;-76
2023/07/09 02:03:28;;;;;;;13.80;10.73;;;;;;;20.18;86.94;101773.09;6188900;23;20089;-76
2023/07/09 02:05:57;;;;;;;12.27;10.50;;;;;;;20.15;87.91;101774.81;6162060;23;20026;-76
2023/07/09 02:08:24;;;;;;;12.20;10.90;;;;;;;20.15;87.37;101772.09;6188481;23;20053;-76
2023/07/09 02:10:51;;;;;;;14.73;10.63;;;;;;;20.13;86.99;101768.38;6162565;23;20024;-77
2023/07/09 02:13:18;;;;;;;15.90;10.88;;;;;;;20.12;87.31;101770.34;6189290;23;20028;-76
2023/07/09 02:15:45;;;;;;;15.77;11.38;;;;;;;20.11;88.22;101776.25;6137376;23;20017;-76
2023/07/09 02:18:12;;;;;;;14.45;11.45;;;;;;;20.08;88.66;101769.09;6162022;23;20028;-76
2023/07/09 02:20:39;;;;;;;12.02;10.85;;;;;;;20.04;88.93;101777.41;6188231;23;20018;-75
2023/07/09 02:23:07;;;;;;;12.65;10.75;;;;;;;20.02;88.73;101773.72;6188601;23;20022;-75
2023/07/09 02:25:34;;;;;;;13.60;11.23;;;;;;;19.99;88.75;101770.03;6188298;23;20023;-74
2023/07/09 02:28:01;;;;;;;12.32;11.05;;;;;;;19.95;88.48;101774.91;6162798;23;20444;-78
2023/07/09 02:30:27;;;;;;;15.48;10.30;;;;;;;19.95;89.02;101767.56;6188760;23;20048;-75
2023/07/09 02:32:54;;;;;;;14.15;11.73;;;;;;;19.91;88.67;101768.97;6188841;23;20022;-76
2023/07/09 02:35:22;;;;;;;13.38;11.20;;;;;;;19.90;88.47;101772.91;6161905;23;20128;-76
2023/07/09 02:37:49;;;;;;;12.85;10.95;;;;;;;19.85;89.09;101768.19;6188471;23;20013;-76
2023/07/09 02:40:16;;;;;;;12.15;10.93;;;;;;;19.77;89.89;101767.13;6162298;23;20068;-75
2023/07/09 02:42:43;;;;;;;12.18;10.82;;;;;;;19.73;89.69;101764.66;6161675;23;20096;-76
2023/07/09 02:45:10;;;;;;;12.60;10.23;;;;;;;19.70;89.41;101772.97;6189116;23;20089;-76
2023/07/09 02:47:37;;;;;;;12.32;11.13;;;;;;;19.68;89.27;101767.31;6161602;23;20053;-77
2023/07/09 02:50:06;;;;;;;12.73;11.43;;;;;;;19.64;89.67;101765.56;6161860;23;20589;-76
2023/07/09 02:52:33;;;;;;;11.98;10.80;;;;;;;19.64;89.43;101770.22;6160784;23;20109;-76
2023/07/09 02:54:59;;;;;;;14.73;11.18;;;;;;;19.62;89.57;101770.69;6188472;23;20030;-76
2023/07/09 02:57:26;;;;;;;12.00;10.80;;;;;;;19.60;88.51;101765.03;6161504;23;20021;-76
2023/07/09 02:59:52;;;;;;;14.05;10.85;;;;;;;19.59;89.55;101768.22;6187860;23;20560;-76
2023/07/09 03:02:19;;;;;;;13.07;10.88;;;;;;;19.57;89.34;101770.66;6162825;23;20021;-76
2023/07/09 03:04:46;;;;;;;12.95;10.70;;;;;;;19.56;89.12;101766.47;6162815;23;20014;-76
2023/07/09 03:07:13;;;;;;;12.40;11.15;;;;;;;19.53;89.78;101770.13;6162370;23;20026;-76
2023/07/09 03:09:39;;;;;;;12.48;11.20;;;;;;;19.48;90.10;101773.50;6162598;23;20018;-76
2023/07/09 03:12:07;;;;;;;12.88;10.88;;;;;;;19.43;90.44;101772.22;6163421;23;20021;-76
2023/07/09 03:14:33;;;;;;;11.70;10.50;;;;;;;19.40;90.14;101773.16;6189292;23;20010;-76
2023/07/09 03:17:00;;;;;;;12.48;11.20;;;;;;;19.36;90.44;101777.28;6189880;23;20455;-77
2023/07/09 03:19:27;;;;;;;14.30;10.98;;;;;;;19.34;90.46;101775.06;6138309;23;20026;-77
2023/07/09 03:21:53;;;;;;;13.13;10.63;;;;;;;19.35;89.61;101775.81;6162213;23;20025;-76
2023/07/09 03:24:20;;;;;;;11.52;10.35;;;;;;;19.37;90.26;101774.13;6162801;23;20400;-76
2023/07/09 03:26:48;;;;;;;14.73;11.38;;;;;;;19.33;90.59;101771.63;6189504;23;20022;-77
2023/07/09 03:29:14;;;;;;;13.98;11.20;;;;;;;19.29;90.54;101781.88;6190050;23;20046;-76
2023/07/09 03:31:41;;;;;;;11.98;10.75;;;;;;;19.30;90.90;101774.53;6189098;23;20026;-76
2023/07/09 03:34:08;;;;;;;12.32;10.48;;;;;;;19.26;90.25;101785.53;6163214;23;20069;-76
2023/07/09 03:36:37;;;;;;;13.70;10.85;;;;;;;19.27;90.31;101783.56;6161973;23;20018;-76
2023/07/09 03:39:04;;;;;;;13.88;10.73;;;;;;;19.25;90.43;101783.31;6189948;23;20025;-76
2023/07/09 03:41:31;;;;;;;12.23;11.13;;;;;;;19.24;90.41;101782.56;6162796;23;20472;-76
2023/07/09 03:43:57;;;;;;;13.35;10.60;;;;;;;19.20;91.05;101786.69;6189655;23;20021;-76
2023/07/09 03:46:24;;;;;;;12.45;10.80;;;;;;;19.23;91.03;101783.03;6189391;23;20021;-77
2023/07/09 03:48:51;;;;;;;18.65;11.25;;;;;;;19.21;91.13;101782.75;6189768;23;20072;-76
2023/07/09 03:51:18;;;;;;;14.35;11.07;;;;;;;19.18;91.00;101786.44;6163509;23;20026;-77
2023/07/09 03:53:45;;;;;;;14.68;10.18;;;;;;;19.18;90.88;101787.19;6189632;23;20121;-77
2023/07/09 03:56:11;;;;;;;13.00;10.52;;;;;;;19.21;90.13;101788.16;6190026;23;20093;-75
2023/07/09 03:58:38;;;;;;;11.90;10.80;;;;;;;19.19;90.81;101788.63;6162259;23;20288;-76
2023/07/09 04:01:04;;;;;;;12.65;11.20;;;;;;;19.15;90.65;101790.81;6189858;23;20028;-77
2023/07/09 04:03:31;;;;;;;11.90;10.77;;;;;;;19.17;90.13;101795.75;6189058;23;20414;-77
2023/07/09 04:05:59;;;;;;;12.20;10.90;;;;;;;19.20;89.77;101792.81;6189845;23;20017;-77
2023/07/09 04:08:26;;;;;;;12.65;10.68;;;;;;;19.20;89.51;101795.53;6189408;23;20081;-76
2023/07/09 04:10:55;;;;;;;14.48;11.40;;;;;;;19.21;89.61;101788.16;6189073;23;20021;-78
2023/07/09 04:13:22;;;;;;;12.38;11.13;;;;;;;19.20;90.36;101797.47;6162100;23;20467;-77
2023/07/09 04:15:49;;;;;;;13.13;10.77;;;;;;;19.24;89.91;101792.63;6189582;23;20013;-76
2023/07/09 04:18:16;;;;;;;17.15;11.18;;;;;;;19.27;89.74;101792.41;6189239;23;20089;-76
2023/07/09 04:20:43;;;;;;;12.50;11.23;;;;;;;19.28;90.40;101793.91;6188958;23;20014;-76
2023/07/09 04:23:11;;;;;;;14.60;10.98;;;;;;;19.30;89.79;101796.88;6162975;23;20497;-76
2023/07/09 04:25:37;;;;;;;12.20;10.77;;;;;;;19.35;89.49;101792.00;6188585;23;20013;-76
2023/07/09 04:28:04;;;;;;;12.77;10.77;;;;;;;19.39;89.76;101806.78;6189689;23;20022;-76
2023/07/09 04:30:31;;;;;;;12.80;11.10;;;;;;;19.41;89.47;101792.81;6189359;23;20069;-76
2023/07/09 04:32:58;;;;;;;11.98;10.68;;;;;;;19.46;89.70;101798.25;6188985;23;20021;-77
2023/07/09 04:35:25;;;;;;;17.20;10.82;;;;;;;19.50;89.65;101790.69;6189344;23;20113;-76
2023/07/09 04:37:51;;;;;;;16.63;10.70;;;;;;;19.51;89.32;101789.50;6162905;23;20068;-76
2023/07/09 04:40:19;;;;;;;12.88;10.80;;;;;;;19.52;89.34;101792.94;6189445;23;20022;-76
2023/07/09 04:42:45;;;;;;;13.98;11.13;;;;;;;19.53;88.91;101792.47;6188975;23;20088;-76
2023/07/09 04:45:12;;;;;;;14.05;10.88;;;;;;;19.60;88.87;101791.28;6189646;23;20033;-76
2023/07/09 04:47:39;;;;;;;13.68;10.57;;;;;;;19.69;88.75;101793.09;6161511;23;20052;-76
2023/07/09 04:50:07;;;;;;;15.10;11.20;;;;;;;19.78;88.89;101795.63;6189363;23;20024;-76
2023/07/09 04:52:35;;;;;;;11.95;10.48;;;;;;;19.91;89.08;101790.59;6188834;23;20014;-76
2023/07/09 04:55:02;;;;;;;11.93;10.82;;;;;;;20.11;87.62;101795.16;6189771;23;20013;-76
2023/07/09 04:57:28;;;;;;;12.60;10.70;;;;;;;20.23;87.01;101797.47;6189156;23;20041;-76
2023/07/09 04:59:55;;;;;;;12.30;10.75;;;;;;;20.41;85.66;101790.97;6189111;23;20041;-77
2023/07/09 05:02:23;;;;;;;12.20;11.00;;;;;;;20.59;85.71;101785.19;6188500;23;20474;-77
2023/07/09 05:04:50;;;;;;;10.98;9.88;;;;;;;20.99;84.66;101788.78;6189111;23;20072;-76
2023/07/09 05:07:16;;;;;;;11.82;10.73;;;;;;;21.19;83.00;101777.75;6189716;23;20097;-76
2023/07/09 05:09:44;;;;;;;14.15;11.32;;;;;;;21.47;82.06;101780.56;6189182;23;20451;-76
2023/07/09 05:12:10;;;;;;;15.13;10.57;;;;;;;21.93;79.86;101777.41;6163305;23;20014;-76
2023/07/09 05:14:37;;;;;;;12.52;11.20;;;;;;;22.28;78.81;101784.28;6188701;23;20020;-77
2023/07/09 05:17:04;;;;;;;14.05;10.55;;;;;;;22.75;75.98;101784.41;6162825;23;20014;-76
2023/07/09 05:19:31;;;;;;;11.07;9.98;;;;;;;23.08;74.35;101783.53;6189201;23;20049;-76
2023/07/09 05:21:58;;;;;;;11.85;9.98;;;;;;;23.44;73.09;101790.47;6189174;23;20392;-76
2023/07/09 05:24:24;;;;;;;11.40;10.30;;;;;;;23.59;72.41;101792.88;6189204;23;20088;-76
2023/07/09 05:26:55;;;;;;;11.30;9.48;;;;;;;23.88;71.25;101789.41;6189174;23;20021;-76
2023/07/09 05:29:22;;;;;;;11.93;10.43;;;;;;;24.34;68.18;101785.06;6189271;23;20054;-76
2023/07/09 05:31:49;;;;;;;12.55;10.43;;;;;;;24.75;67.00;101789.53;6188743;23;20479;-75
2023/07/09 05:34:15;;;;;;;17.58;10.18;;;;;;;24.99;65.92;101778.59;6190106;23;20018;-75
2023/07/09 05:36:42;;;;;;;11.77;10.13;;;;;;;25.29;65.09;101785.84;6189764;23;20017;-76
2023/07/09 05:39:09;;;;;;;17.80;11.25;;;;;;;25.76;63.78;101781.41;6189760;23;20021;-75
2023/07/09 05:41:35;;;;;;;14.27;11.05;;;;;;;26.03;62.31;101784.19;6189503;23;20422;-75
2023/07/09 05:44:02;;;;;;;12.52;11.32;;;;;;;26.00;62.08;101783.22;6190066;23;20141;-76
2023/07/09 05:46:35;;;;;;;14.18;10.82;;;;;;;26.04;63.63;101780.94;6189168;23;20025;-75
2023/07/09 05:49:05;;;;;;;13.73;11.35;;;;;;;26.23;62.60;101789.03;6189952;23;20464;-74
2023/07/09 05:51:32;;;;;;;18.25;11.48;;;;;;;26.13;63.78;101790.69;6163244;23;20020;-77
2023/07/09 05:53:58;;;;;;;14.20;11.65;;;;;;;25.92;64.15;101796.78;6189895;23;20048;-75
2023/07/09 05:56:25;;;;;;;15.85;12.45;;;;;;;25.95;63.45;101802.44;6163425;23;20464;-74
2023/07/09 05:58:52;;;;;;;16.00;13.43;;;;;;;25.91;63.60;101800.75;6163290;23;20028;-74
2023/07/09 06:01:20;;;;;;;22.38;15.00;;;;;;;25.81;63.28;101794.22;6188943;23;20024;-77
2023/07/09 06:03:47;;;;;;;16.88;14.75;;;;;;;25.77;64.38;101803.97;6189745;23;20447;-75
2023/07/09 06:06:14;;;;;;;16.58;14.88;;;;;;;25.77;63.37;101801.97;6189851;23;20017;-74
2023/07/09 06:08:41;;;;;;;20.45;15.88;;;;;;;25.62;63.64;101798.97;6189220;23;20486;-74
2023/07/09 06:11:08;;;;;;;18.25;16.10;;;;;;;25.48;64.19;101803.66;6189795;23;20481;-74
2023/07/09 06:13:35;;;;;;;17.65;15.43;;;;;;;25.50;65.47;101803.88;6162911;23;20444;-75
2023/07/09 06:16:01;;;;;;;17.83;15.02;;;;;;;25.50;66.58;101812.06;6189089;23;20428;-75
2023/07/09 06:18:29;;;;;;;16.33;13.88;;;;;;;25.68;67.04;101812.53;6163457;23;20017;-78
2023/07/09 06:20:59;;;;;;;15.02;13.43;;;;;;;25.75;66.30;101814.66;6163588;23;20013;-78
2023/07/09 06:23:27;;;;;;;19.52;14.57;;;;;;;25.73;66.05;101811.72;6189291;23;20101;-76
2023/07/09 06:25:53;;;;;;;24.23;14.52;;;;;;;25.75;64.78;101812.66;6189189;23;20069;-76
2023/07/09 06:28:23;;;;;;;19.40;13.30;;;;;;;25.90;65.64;101809.47;6189339;23;20021;-77
2023/07/09 06:30:50;;;;;;;18.00;14.40;;;;;;;26.15;65.07;101815.47;6189838;23;20014;-76
2023/07/09 06:33:18;;;;;;;17.20;13.10;;;;;;;26.29;67.15;101816.97;6189390;23;20092;-76
2023/07/09 06:35:59;;;;;;;19.00;14.10;;;;;;;26.41;65.56;101822.97;6189928;23;20090;-76
2023/07/09 06:38:26;;;;;;;19.52;14.45;;;;;;;26.44;63.45;101814.47;6164242;23;20049;-76
2023/07/09 06:40:54;;;;;;;22.35;13.25;;;;;;;26.43;64.31;101820.44;6190741;23;20018;-76
2023/07/09 06:43:21;;;;;;;20.35;14.68;;;;;;;26.39;64.17;101822.78;6162728;23;20344;-73
2023/07/09 06:45:59;;;;;;;14.82;12.63;;;;;;;26.56;65.74;101820.44;6163923;23;20021;-74
2023/07/09 06:48:28;;;;;;;19.80;14.20;;;;;;;26.71;63.39;101828.84;6163534;23;20084;-74
2023/07/09 06:50:57;;;;;;;18.20;13.50;;;;;;;26.71;63.25;101831.56;6190778;23;20020;-75
2023/07/09 06:53:24;;;;;;;19.60;14.00;;;;;;;26.76;64.20;101827.25;6190528;23;20413;-75
2023/07/09 06:55:55;;;;;;;22.70;14.00;;;;;;;26.87;63.11;101825.03;6190684;23;20013;-74
2023/07/09 06:58:25;;;;;;;18.60;14.63;;;;;;;27.01;62.70;101822.28;6190090;23;20431;-75
2023/07/09 07:00:52;;;;;;;20.98;14.70;;;;;;;27.18;61.89;101825.41;6190816;23;20233;-74
2023/07/09 07:03:18;;;;;;;22.85;14.32;;;;;;;27.21;61.29;101829.78;6190514;23;20459;-75
2023/07/09 07:05:48;;;;;;;19.73;14.07;;;;;;;27.27;62.17;101827.66;6190705;23;20481;-75
2023/07/09 07:08:17;;;;;;;21.27;14.93;;;;;;;27.33;62.11;101828.28;6190526;23;20427;-75
2023/07/09 07:10:46;;;;;;;17.95;14.40;;;;;;;27.50;62.33;101828.63;6190646;23;20400;-75
2023/07/09 07:13:14;;;;;;;17.02;13.35;;;;;;;27.68;60.97;101824.25;6190188;23;20440;-75
2023/07/09 07:15:40;;;;;;;16.60;13.02;;;;;;;27.72;60.57;101824.66;6190215;23;20045;-75
2023/07/09 07:18:09;;;;;;;18.38;12.93;;;;;;;27.88;60.36;101826.25;6190639;23;20022;-76
2023/07/09 07:20:35;;;;;;;19.63;13.45;;;;;;;28.01;60.19;101825.41;6189609;23;20022;-76
2023/07/09 07:23:02;;;;;;;19.50;12.43;;;;;;;28.26;60.55;101816.88;6190656;23;20013;-77
2023/07/09 07:25:32;;;;;;;18.00;13.18;;;;;;;28.30;59.35;101815.25;6189403;23;20014;-77
2023/07/09 07:27:58;;;;;;;17.27;12.80;;;;;;;28.44;59.73;101815.84;6189672;23;20029;-78
2023/07/09 07:30:25;;;;;;;17.58;13.68;;;;;;;28.61;58.69;101816.13;6189998;23;20018;-79
2023/07/09 07:32:52;;;;;;;21.58;12.88;;;;;;;28.68;58.56;101820.19;6190368;23;20104;-79
2023/07/09 07:35:19;;;;;;;21.98;12.25;;;;;;;28.81;59.53;101823.53;6190114;23;20053;-78
2023/07/09 07:37:46;;;;;;;22.75;13.13;;;;;;;29.00;58.50;101814.28;6190282;23;20022;-76
2023/07/09 07:40:13;;;;;;;15.63;12.27;;;;;;;29.14;56.75;101823.84;6164309;23;20041;-77
2023/07/09 07:42:40;;;;;;;16.67;13.85;;;;;;;29.15;56.80;101822.56;6189613;23;20100;-77
2023/07/09 07:45:07;;;;;;;13.30;11.95;;;;;;;29.33;56.83;101823.50;6190728;23;20537;-77
2023/07/09 07:47:35;;;;;;;18.77;11.80;;;;;;;29.45;57.18;101822.63;6190117;23;20516;-77
2023/07/09 07:50:07;;;;;;;14.27;11.70;;;;;;;29.51;57.89;101828.66;6190615;23;20020;-77
2023/07/09 07:52:37;;;;;;;18.98;12.18;;;;;;;29.63;57.00;101822.81;6190154;23;20018;-78
2023/07/09 07:55:08;;;;;;;14.57;11.18;;;;;;;29.85;56.16;101822.81;6190345;23;20020;-77
2023/07/09 07:57:37;;;;;;;17.45;12.00;;;;;;;30.10;54.27;101819.50;6189752;23;20028;-77
2023/07/09 08:00:04;;;;;;;17.02;11.60;;;;;;;30.24;54.22;101820.75;6190891;23;20402;-77
2023/07/09 08:02:38;;;;;;;15.43;11.70;;;;;;;30.55;52.89;101823.41;6190429;23;20067;-77
2023/07/09 08:05:05;;;;;;;12.18;10.90;;;;;;;30.78;52.38;101821.34;6190450;23;20418;-75
2023/07/09 08:07:32;;;;;;;11.20;9.70;;;;;;;31.02;50.53;101819.91;6189630;23;20534;-78
2023/07/09 08:09:58;;;;;;;12.43;9.73;;;;;;;31.04;51.19;101822.84;6189528;23;20013;-78
2023/07/09 08:12:25;;;;;;;16.63;10.10;;;;;;;31.23;50.54;101823.09;6189864;23;20034;-78
2023/07/09 08:14:51;;;;;;;11.82;9.50;;;;;;;31.45;48.77;101827.00;6190305;23;20040;-77
2023/07/09 08:17:18;;;;;;;16.63;9.93;;;;;;;31.48;49.62;101834.13;6190121;23;20096;-77
2023/07/09 08:19:47;;;;;;;10.07;9.10;;;;;;;31.66;51.85;101819.09;6163559;23;20017;-77
2023/07/09 08:22:15;;;;;;;18.17;8.70;;;;;;;31.88;48.92;101819.50;6190329;23;20018;-78
2023/07/09 08:24:42;;;;;;;16.30;8.48;;;;;;;31.96;48.47;101815.41;6187582;23;20018;-77
2023/07/09 08:27:12;;;;;;;8.70;7.80;;;;;;;32.09;46.66;101819.84;6189850;23;20021;-78
2023/07/09 08:29:40;;;;;;;15.13;8.32;;;;;;;32.01;46.88;101822.66;6189489;23;20022;-78
2023/07/09 08:32:07;;;;;;;10.63;8.30;;;;;;;32.04;46.88;101823.56;6189850;23;20084;-78
2023/07/09 08:34:34;;;;;;;12.27;7.60;;;;;;;32.09;48.32;101823.31;6189872;23;20024;-78
2023/07/09 08:37:01;;;;;;;9.88;7.60;;;;;;;32.16;47.92;101828.03;6190019;23;20028;-77
2023/07/09 08:39:28;;;;;;;10.43;7.60;;;;;;;32.33;44.03;101824.56;6162411;23;20013;-78
2023/07/09 08:42:09;;;;;;;8.45;7.55;;;;;;;32.50;45.20;101826.56;6189659;23;20014;-77
2023/07/09 08:44:58;;;;;;;10.13;8.70;;;;;;;32.46;44.74;101812.47;6189553;23;20085;-76
2023/07/09 08:47:45;;;;;;;12.68;7.45;;;;;;;32.44;48.10;101812.31;6189547;23;20017;-78
2023/07/09 08:50:15;;;;;;;9.80;8.00;;;;;;;32.83;45.87;101810.56;6190148;23;20076;-77
2023/07/09 08:52:44;;;;;;;9.90;8.70;;;;;;;33.08;45.00;101811.13;6189607;23;20045;-77
2023/07/09 08:55:23;;;;;;;11.00;8.48;;;;;;;33.37;44.82;101816.03;6189507;23;20013;-78
2023/07/09 08:58:00;;;;;;;15.50;8.77;;;;;;;33.48;43.06;101807.22;6189533;23;20018;-78
2023/07/09 09:00:29;;;;;;;9.50;7.93;;;;;;;33.58;43.90;101802.47;6162812;23;20096;-77
2023/07/09 09:03:02;;;;;;;15.23;9.00;;;;;;;33.53;44.17;101808.97;6189890;23;20013;-78
2023/07/09 09:05:35;;;;;;;13.32;7.70;;;;;;;33.71;43.37;101809.59;6162900;23;20423;-77
2023/07/09 09:08:12;;;;;;;9.50;7.50;;;;;;;33.84;43.15;101816.75;6189485;23;20108;-77
2023/07/09 09:10:54;;;;;;;10.88;7.88;;;;;;;33.90;41.79;101811.69;6189929;23;20017;-78
2023/07/09 09:13:25;;;;;;;11.77;7.35;;;;;;;34.06;41.05;101805.28;6163178;23;20471;-78
2023/07/09 09:15:51;;;;;;;9.48;7.13;;;;;;;34.10;42.48;101802.06;6163325;23;20025;-78
2023/07/09 09:18:22;;;;;;;9.82;7.35;;;;;;;34.22;41.85;101807.75;6189637;23;20053;-79
2023/07/09 09:21:00;;;;;;;8.43;7.13;;;;;;;34.36;41.70;101809.53;6190113;23;20089;-78
2023/07/09 09:23:39;;;;;;;8.57;7.07;;;;;;;34.30;40.90;101802.84;6188943;23;20013;-78
2023/07/09 09:26:18;;;;;;;11.23;7.25;;;;;;;34.41;40.79;101805.72;6189255;23;20045;-78
2023/07/09 09:28:45;;;;;;;10.13;7.00;;;;;;;34.44;40.03;101809.34;6189921;23;20021;-78
2023/07/09 09:31:14;;;;;;;11.07;6.93;;;;;;;34.57;39.88;101799.88;6189709;23;20030;-78
2023/07/09 09:33:43;;;;;;;7.50;6.70;;;;;;;34.75;39.63;101801.16;6162711;23;20045;-78
2023/07/09 09:36:16;;;;;;;7.25;6.63;;;;;;;34.89;39.21;101798.63;6189696;23;20024;-78
2023/07/09 09:38:43;;;;;;;12.45;6.97;;;;;;;34.86;38.96;101805.34;6188971;23;20018;-77
2023/07/09 09:41:14;;;;;;;9.13;7.53;;;;;;;34.92;39.35;101794.69;6190118;23;20014;-77
2023/07/09 09:43:44;;;;;;;12.13;7.55;;;;;;;35.04;38.44;101795.53;6189776;23;20265;-79
2023/07/09 09:46:22;;;;;;;8.40;6.93;;;;;;;35.13;38.80;101800.31;6189981;23;20088;-78
2023/07/09 09:48:50;;;;;;;7.85;6.78;;;;;;;35.15;37.92;101794.91;6189842;23;20022;-78
2023/07/09 09:51:18;;;;;;;12.30;7.15;;;;;;;35.20;38.48;101791.06;6190058;23;20419;-77
2023/07/09 09:53:49;;;;;;;8.07;7.22;;;;;;;35.37;37.67;101790.88;6189074;23;20081;-77
2023/07/09 09:56:36;;;;;;;11.30;7.18;;;;;;;35.67;38.27;101783.09;6189867;23;20013;-76
2023/07/09 09:59:04;;;;;;;8.20;7.32;;;;;;;35.58;38.51;101781.88;6189787;23;20080;-77
2023/07/09 10:01:35;;;;;;;9.00;7.40;;;;;;;35.56;37.27;101781.72;6189316;23;20025;-78
2023/07/09 10:04:04;;;;;;;11.20;7.30;;;;;;;35.51;37.74;101784.81;6189980;23;20014;-76
2023/07/09 10:06:48;;;;;;;12.05;6.97;;;;;;;35.57;37.71;101776.91;6188550;23;20048;-78
2023/07/09 10:09:27;;;;;;;7.90;6.93;;;;;;;35.64;36.80;101776.69;6189368;23;20415;-78
2023/07/09 10:12:15;;;;;;;10.68;6.97;;;;;;;35.91;36.83;101773.63;6190589;23;20455;-75
2023/07/09 10:15:39;;;;;;;11.25;6.88;;;;;;;36.11;37.75;101770.66;6190582;23;20077;-78
2023/07/09 10:18:29;;;;;;;11.40;7.43;;;;;;;36.07;36.34;101766.31;5955944;24;20025;-79
2023/07/09 10:21:41;;;;;;;7.28;6.43;;;;;;;36.25;37.21;101761.19;5955876;24;20502;-77
2023/07/09 10:24:27;;;;;;;11.45;6.60;;;;;;;36.33;35.54;101749.91;5873494;24;20177;-77
2023/07/09 10:27:28;;;;;;;7.35;6.68;;;;;;;36.45;34.96;101755.47;5846292;24;20023;-76
2023/07/09 10:30:30;;;;;;;10.52;6.43;;;;;;;36.39;35.67;101764.16;5846069;24;20023;-76
2023/07/09 10:33:16;;;;;;;8.35;7.45;;;;;;;36.55;36.87;101759.59;5845220;24;20031;-77
2023/07/09 10:36:20;;;;;;;10.93;6.70;;;;;;;36.70;35.48;101759.13;5823893;24;20081;-76
2023/07/09 10:39:08;;;;;;;7.53;6.40;;;;;;;36.71;35.58;101765.41;5846759;24;20027;-77
2023/07/09 10:41:50;;;;;;;10.52;6.70;;;;;;;36.71;33.81;101762.63;5846623;24;20332;-75
2023/07/09 10:44:38;;;;;;;7.93;6.35;;;;;;;36.66;34.10;101764.44;5845274;24;20038;-77
2023/07/09 10:47:29;;;;;;;12.15;6.70;;;;;;;36.11;36.19;101770.66;5846566;24;20098;-77
2023/07/09 10:50:17;;;;;;;6.90;6.07;;;;;;;35.99;36.23;101767.88;5846673;24;20406;-77
2023/07/09 10:53:05;;;;;;;10.05;9.05;;;;;;;35.98;38.90;101763.66;5916670;24;20025;-77
2023/07/09 10:56:05;;;;;;;9.65;8.07;;;;;;;36.06;39.10;101758.59;6031175;23;20497;-78
2023/07/09 10:58:43;;;;;;;11.15;10.05;;;;;;;35.79;41.40;101761.75;6120537;23;20423;-78
2023/07/09 11:01:14;;;;;;;10.55;9.60;;;;;;;35.94;40.87;101761.34;6160975;23;20440;-77
2023/07/09 11:03:56;;;;;;;10.60;9.50;;;;;;;36.19;40.67;101766.34;6160192;23;20021;-76
2023/07/09 11:06:41;;;;;;;11.52;9.43;;;;;;;36.16;38.95;101767.56;6160563;23;20452;-77
2023/07/09 11:09:29;;;;;;;9.93;8.93;;;;;;;35.78;40.50;101776.16;6160587;23;20033;-78
2023/07/09 11:12:02;;;;;;;11.60;9.10;;;;;;;35.23;41.20;101778.09;6160325;23;20020;-79
2023/07/09 11:14:38;;;;;;;11.13;8.70;;;;;;;34.95;42.43;101776.94;6160308;23;20452;-78
2023/07/09 11:17:12;;;;;;;11.30;8.90;;;;;;;34.81;41.81;101773.19;6160666;23;20069;-78
2023/07/09 11:19:44;;;;;;;14.30;9.15;;;;;;;34.74;42.38;101760.97;6159740;23;20121;-78
2023/07/09 11:22:27;;;;;;;23.92;9.80;;;;;;;34.71;43.59;101753.88;6161116;23;20014;-78
2023/07/09 11:25:12;;;;;;;13.70;9.20;;;;;;;34.91;43.09;101751.75;6162969;23;20431;-78
2023/07/09 11:27:56;;;;;;;13.23;9.52;;;;;;;34.92;43.18;101742.16;6190102;23;20094;-77